Home > Products > Valid Products > MTR

000
SAUS41 KCAR 191117
MTR40B
METAR K40B 191117Z AUTO VRB02KT M02/M03 A3031 RMK AO1 SLP284
     T10181028 52026





000
SAUS41 KCAR 191057
MTRGNR
METAR KGNR 191056Z AUTO 32005KT 01/M02 A3027 RMK AO1 SLP265
T00061017





000
SAUS41 KCAR 191016
MTR40B
METAR K40B 191016Z AUTO 00000KT M03/M03 A3029 RMK AO1 SLP276
     T10281034 52028





000
SAUS41 KCAR 190957
MTRGNR
METAR KGNR 190956Z AUTO VRB03KT 00/M02 A3024 RMK AO1 SLP253
T00001022





000
SAUS41 KCAR 190916
MTR40B
METAR K40B 190916Z AUTO VRB02KT M02/M03 A3025 RMK AO1 SLP264
     T10241030 52025 60000





000
SAUS41 KCAR 190857
MTRGNR
METAR KGNR 190856Z AUTO VRB03KT 01/M02 A3021 RMK AO1 SLP245
T00061022 53021





000
SAUS41 KCAR 190816
MTR40B
METAR K40B 190816Z AUTO 00000KT M02/M03 A3023 RMK AO1 SLP254
     T10251031 53022 P0000





000
SAUS41 KCAR 190757
MTRGNR
METAR KGNR 190756Z AUTO VRB03KT 01/M02 A3019 RMK AO1 SLP236
T00061017





000
SAUS41 KCAR 190716
MTR40B
METAR K40B 190716Z AUTO 00000KT M02/M03 A3020 RMK AO1 SLP243
     T10221028 52018





000
SAUS41 KCAR 190657
MTRGNR
METAR KGNR 190656Z AUTO 31004KT 01/M02 A3017 RMK AO1 SLP228
T00061017





000
SAUS41 KCAR 190616
MTR40B
METAR K40B 190616Z AUTO 00000KT M02/M03 A3018 RMK AO1 SLP234
     T10171025 10034 21018 52012 60001





000
SAUS41 KCAR 190557
MTRGNR
METAR KGNR 190556Z AUTO 00000KT 02/M01 A3015 RMK AO1 SLP221
T00171011 10061 20017 53014





000
SAUS41 KCAR 190516
MTR40B
METAR K40B 190516Z AUTO VRB03KT M01/M02 A3016 RMK AO1 SLP228
     T10111019 400991016 52011





000
SAUS41 KCAR 190458
MTRGNR
METAR KGNR 190456Z AUTO 32005KT 02/M01 A3013 RMK AO1 SLP212
T00221011 401280022





000
SAUS41 KCAR 190416
MTR40B
METAR K40B 190416Z AUTO 00000KT M02/M02 A3014 RMK AO1 SLP221
     T10151020 52009





000
SAUS41 KCAR 190316
MTR40B
METAR K40B 190316Z AUTO VRB02KT 00/M01 A3014 RMK AO1 SLP218
     T10031010 52014 60001





000
SAUS41 KCAR 190258
MTRGNR
METAR KGNR 190256Z AUTO 34006KT 04/M01 A3011 RMK AO1 SLP205
T00441006 51015





000
SAUS41 KCAR 190216
MTR40B
METAR K40B 190216Z AUTO 00000KT 02/M02 A3013 RMK AO1 SLP213
     T00181023 52015 P0001





000
SAUS41 KCAR 190157
MTRGNR
METAR KGNR 190156Z AUTO 34009KT 05/M01 A3010 RMK AO1 SLP202
T00501006





000
SAUS41 KCAR 190116
MTR40B
METAR K40B 190116Z AUTO 00000KT 02/01 A3011 RMK AO1 SLP209
     T00220011 52017





000
SAUS41 KCAR 190057
MTRGNR
METAR KGNR 190056Z AUTO 32010G18KT 05/M01 A3008 RMK AO1 SLP197
T00501006





000
SAUS41 KCAR 190016
MTR40B
METAR K40B 190016Z AUTO 00000KT 03/01 A3009 RMK AO1 SLP202
     T00340008 10090 20035 51021





000
SAUS41 KCAR 182357
MTRGNR
METAR KGNR 182356Z AUTO 32010G19KT 280V340 06/M01 A3006 RMK AO1
SLP188 T00611006 10122 20061 53025





000
SAUS41 KCAR 182316
MTR40B
METAR K40B 182316Z AUTO 00000KT 04/01 A3008 RMK AO1 SLP196
     T00380007 52022





000
SAUS41 KCAR 182257
MTRGNR
METAR KGNR 182256Z AUTO 32010G19KT 07/M01 A3004 RMK AO1 SLP180
T00671011





000
SAUS41 KCAR 182216
MTR40B
METAR K40B 182216Z AUTO VRB02KT 05/M01 A3007 RMK AO1 SLP191
     T00521008 53023





000
SAUS41 KCAR 182157
MTRGNR
METAR KGNR 182156Z AUTO 32008G17KT 270V350 08/00 A3001 RMK AO1
SLP170 T00830000





000
SAUS41 KCAR 182116
MTR40B
METAR K40B 182116Z AUTO VRB03KT 07/00 A3003 RMK AO1 SLP180
     T00670000 52015





000
SAUS41 KCAR 182057
MTRGNR
METAR KGNR 182056Z AUTO 32007G18KT 260V350 09/00 A2998 RMK AO1
SLP161 T00890000 51014





000
SAUS41 KCAR 182016
MTR40B
METAR K40B 182016Z AUTO VRB03G15KT 07/01 A3001 RMK AO1 SLP174
     T00730008 53010





000
SAUS41 KCAR 181957
MTRGNR
METAR KGNR 181956Z AUTO 32009G16KT 11/01 A2997 RMK AO1 SLP157
T01060006





000
SAUS41 KCAR 181916
MTR40B
METAR K40B 181916Z AUTO 00000KT 09/02 A3000 RMK AO1 SLP168
     T00880016 52004





000
SAUS41 KCAR 181857
MTRGNR
METAR KGNR 181856Z AUTO 31008G19KT 270V340 11/02 A2996 RMK AO1
SLP152 T01110017





000
SAUS41 KCAR 181816
MTR40B
METAR K40B 181816Z AUTO VRB04KT 08/02 A2998 RMK AO1 SLP164
     T00820015 10097 20054 52002 60000





000
SAUS41 KCAR 181757
MTRGNR
METAR KGNR 181756Z AUTO 35014G20KT 12/03 A2994 RMK AO1 SLP146
T01170028 10128 20100 50001





000
SAUS41 KCAR 181716
MTR40B
METAR K40B 181716Z AUTO VRB03KT 09/01 A2998 RMK AO1 SLP163
     T00880009 52004





000
SAUS41 KCAR 181658
MTRGNR
METAR KGNR 181656Z AUTO 32008G18KT 280V360 12/04 A2994 RMK AO1
SLP145 T01220039





000
SAUS41 KCAR 181616
MTR40B
METAR K40B 181616Z AUTO 00000KT 08/03 A2998 RMK AO1 SLP163
     T00760033 52009





000
SAUS41 KCAR 181557
MTRGNR
METAR KGNR 181556Z AUTO 32013G18KT 12/04 A2994 RMK AO1 SLP144
T01220044





000
SAUS41 KCAR 181516
MTR40B
METAR K40B 181516Z AUTO VRB04G12KT 07/03 A2998 RMK AO1 SLP161
     T00680032 51016 60000





000
SAUS41 KCAR 181457
MTRGNR
METAR KGNR 181456Z AUTO VRB06KT 11/04 A2994 RMK AO1 SLP144 T01060044
51014





000
SAUS41 KCAR 181416
MTR40B
METAR K40B 181416Z AUTO VRB04KT 06/04 A2997 RMK AO1 SLP159
     T00600036 51021 P0000





000
SAUS41 KCAR 181358
MTRGNR
METAR KGNR 181356Z AUTO VRB04KT 11/06 A2993 RMK AO1 SLP143 T01110061





000
SAUS41 KCAR 181316
MTR40B
METAR K40B 181316Z AUTO VRB02KT 06/04 A2996 RMK AO1 SLP153
     T00550040 52024





000
SAUS41 KCAR 181258
MTRGNR
METAR KGNR 181256Z AUTO 32008KT 270V340 10/07 A2991 RMK AO1 SLP136
T01000067





000
SAUS41 KCAR 181216
MTR40B
METAR K40B 181216Z AUTO 00000KT 06/05 A2993 RMK AO1 SLP144
     T00590047 10093 20055 52023 60000 70013





000
SAUS41 KCAR 181157
MTRGNR
METAR KGNR 181156Z AUTO 32011G17KT 280V350 11/08 A2990 RMK AO1
SLP128 T01060083 10111 20083 53017





000
SAUS41 KCAR 181116
MTR40B
METAR K40B 181116Z AUTO 00000KT 06/05 A2991 RMK AO1 SLP135
     T00570051 52021





000
SAUS41 KCAR 181057
MTRGNR
METAR KGNR 181056Z AUTO 32003KT 10/07 A2988 RMK AO1 SLP123 T01000067





000
SAUS41 KCAR 181016
MTR40B
METAR K40B 181016Z AUTO 00000KT 07/06 A2988 RMK AO1 SLP127
     T00670063 53014





000
SAUS41 KCAR 180957
MTRGNR
METAR KGNR 180956Z AUTO 00000KT 09/07 A2985 RMK AO1 SLP114 T00940067





000
SAUS41 KCAR 180916
MTR40B
METAR K40B 180916Z AUTO 00000KT 07/07 A2986 RMK AO1 SLP119
     T00680065 53011 60000





000
SAUS41 KCAR 180857
MTRGNR
METAR KGNR 180856Z AUTO 00000KT 09/07 A2984 RMK AO1 SLP110 T00940067
56007





000
SAUS41 KCAR 180816
MTR40B
METAR K40B 180816Z AUTO 00000KT 07/07 A2984 RMK AO1 SLP112
     T00700065 53004





000
SAUS41 KCAR 180757
MTRGNR
METAR KGNR 180756Z AUTO 00000KT 08/07 A2984 RMK AO1 SLP110 T00830072





000
SAUS41 KCAR 180716
MTR40B
METAR K40B 180716Z AUTO 00000KT 07/07 A2984 RMK AO1 SLP110
     T00740065 55000 P0000





000
SAUS41 KCAR 180657
MTRGNR
METAR KGNR 180656Z AUTO 00000KT 09/07 A2985 RMK AO1 SLP111 T00890072





000
SAUS41 KCAR 180616
MTR40B
METAR K40B 180616Z AUTO 00000KT 09/09 A2983 RMK AO1 SLP105
     T00930090 10100 20086 56014 P0001 60010





000
SAUS41 KCAR 180557
MTRGNR
METAR KGNR 180556Z AUTO 00000KT 08/07 A2986 RMK AO1 SLP118 T00830072
10122 20083 56009





000
SAUS41 KCAR 180516
MTR40B
METAR K40B 180516Z AUTO VRB04KT 10/09 A2983 RMK AO1 SLP106
     T00990094 401410041 56021 P0000





000
SAUS41 KCAR 180457
MTRGNR
METAR KGNR 180456Z AUTO 00000KT 09/08 A2987 RMK AO1 SLP120 T00940078
401610056





000
SAUS41 KCAR 180416
MTR40B
METAR K40B 180416Z AUTO 00000KT 09/09 A2984 RMK AO1 SLP110
     T00870085 58023 P0000





000
SAUS41 KCAR 180357
MTRGNR
METAR KGNR 180356Z AUTO 00000KT 09/08 A2988 RMK AO1 SLP123 T00940078





000
SAUS41 KCAR 180316
MTR40B
METAR K40B 180316Z AUTO 00000KT 09/09 A2987 RMK AO1 SLP119
     T00880086 58015 P0003 60009





000
SAUS41 KCAR 180257
MTRGNR
METAR KGNR 180256Z AUTO VRB03KT 11/08 A2989 RMK AO1 SLP127 T01060078
58008





000
SAUS41 KCAR 180216
MTR40B
METAR K40B 180216Z AUTO VRB02KT 09/09 A2989 RMK AO1 SLP127
     T00900086 58005 P0005





000
SAUS41 KCAR 180157
MTRGNR
METAR KGNR 180156Z AUTO 00000KT 10/08 A2990 RMK AO1 SLP131 T01000078





000
SAUS41 KCAR 180116
MTR40B
METAR K40B 180116Z AUTO VRB02KT 09/09 A2991 RMK AO1 SLP132
     T00930088 54000 P0001





000
SAUS41 KCAR 180057
MTRGNR
METAR KGNR 180056Z AUTO 00000KT 12/08 A2992 RMK AO1 SLP137 T01170083





000
SAUS41 KCAR 180016
MTR40B
METAR K40B 180016Z AUTO 00000KT 10/09 A2992 RMK AO1 SLP134
     T00960089 10132 20096 52002





000
SAUS41 KCAR 172357
MTRGNR
METAR KGNR 172356Z AUTO 00000KT 12/08 A2992 RMK AO1 SLP136 T01220078
10156 20117 53006





000
SAUS41 KCAR 172316
MTR40B
METAR K40B 172316Z AUTO 00000KT 10/09 A2991 RMK AO1 SLP132
     T01020088 57003





000
SAUS41 KCAR 172257
MTRGNR
METAR KGNR 172256Z AUTO 00000KT 12/09 A2991 RMK AO1 SLP136 T01170089





000
SAUS41 KCAR 172216
MTR40B
METAR K40B 172216Z AUTO 00000KT 11/08 A2991 RMK AO1 SLP132
     T01090083 57003





000
SAUS41 KCAR 172157
MTRGNR
METAR KGNR 172156Z AUTO 00000KT 13/09 A2990 RMK AO1 SLP133 T01280089





000
SAUS41 KCAR 172116
MTR40B
METAR K40B 172116Z AUTO 00000KT 12/08 A2991 RMK AO1 SLP133
     T01180082 57005





000
SAUS41 KCAR 172057
MTRGNR
METAR KGNR 172056Z AUTO 00000KT 14/08 A2990 RMK AO1 SLP131 T01440083
56006





000
SAUS41 KCAR 172016
MTR40B
METAR K40B 172016Z AUTO VRB03KT 13/07 A2992 RMK AO1 SLP136
     T01300069 58006





000
SAUS41 KCAR 171957
MTRGNR
METAR KGNR 171956Z AUTO 00000KT 15/08 A2990 RMK AO1 SLP132 T01500078





000
SAUS41 KCAR 171916
MTR40B
METAR K40B 171916Z AUTO 00000KT 12/07 A2992 RMK AO1 SLP137
     T01220074 58005





000
SAUS41 KCAR 171857
MTRGNR
METAR KGNR 171856Z AUTO 00000KT 15/07 A2991 RMK AO1 SLP134 T01500072





000
SAUS41 KCAR 171816
MTR40B
METAR K40B 171816Z AUTO 00000KT 12/08 A2993 RMK AO1 SLP142
     T01170078 10141 20092 50000 P0002 60002





000
SAUS41 KCAR 171757
MTRGNR
METAR KGNR 171756Z AUTO 00000KT 15/06 A2992 RMK AO1 SLP135 T01500061
10161 20094 58009





000
SAUS41 KCAR 171716
MTR40B
METAR K40B 171716Z AUTO VRB04KT 11/08 A2993 RMK AO1 SLP145
     T01080079 52002





000
SAUS41 KCAR 171657
MTRGNR
METAR KGNR 171656Z AUTO 00000KT 15/07 A2993 RMK AO1 SLP140 T01500067





000
SAUS41 KCAR 171616
MTR40B
METAR K40B 171616Z AUTO 00000KT 12/08 A2993 RMK AO1 SLP145
     T01200075 52003





000
SAUS41 KCAR 171557
MTRGNR
METAR KGNR 171556Z AUTO VRB03KT 16/06 A2994 RMK AO1 SLP142 T01560061





000
SAUS41 KCAR 171516
MTR40B
METAR K40B 171516Z AUTO VRB06KT 13/06 A2993 RMK AO1 SLP143
     T01290055 50003





000
SAUS41 KCAR 171457
MTRGNR
METAR KGNR 171456Z AUTO VRB03KT 14/07 A2994 RMK AO1 SLP145 T01390067
50001





000
SAUS41 KCAR 171416
MTR40B
METAR K40B 171416Z AUTO VRB02KT 12/07 A2993 RMK AO1 SLP145
     T01200070 52008





000
SAUS41 KCAR 171357
MTRGNR
METAR KGNR 171356Z AUTO 00000KT 12/08 A2995 RMK AO1 SLP150 T01220078





000
SAUS41 KCAR 171316
MTR40B
METAR K40B 171316Z AUTO VRB04KT 12/07 A2992 RMK AO1 SLP143
     T01150070 51013





000
SAUS41 KCAR 171257
MTRGNR
METAR KGNR 171256Z AUTO 00000KT 11/07 A2996 RMK AO1 SLP150 T01060072





000
SAUS41 KCAR 171216
MTR40B
METAR K40B 171216Z AUTO VRB03KT 09/06 A2992 RMK AO1 SLP141
     T00930063 10095 20041 52013 60001 70014





000
SAUS41 KCAR 171157
MTRGNR
METAR KGNR 171156Z AUTO 00000KT 09/07 A2994 RMK AO1 SLP147 70006
T00940067 10094 20056 51008





000
SAUS41 KCAR 171116
MTR40B
METAR K40B 171116Z AUTO VRB03KT 07/06 A2991 RMK AO1 SLP138
     T00720060 53014





000
SAUS41 KCAR 171057
MTRGNR
METAR KGNR 171056Z AUTO 00000KT 07/06 A2994 RMK AO1 SLP147 T00670056





000
SAUS41 KCAR 171016
MTR40B
METAR K40B 171016Z AUTO VRB05G12KT 07/06 A2989 RMK AO1 SLP130
     T00680056 52008





000
SAUS41 KCAR 170957
MTRGNR
METAR KGNR 170956Z AUTO 00000KT 06/05 A2992 RMK AO1 SLP141 T00610050





000
SAUS41 KCAR 170916
MTR40B
METAR K40B 170916Z AUTO VRB04KT 07/06 A2988 RMK AO1 SLP126
     T00700058 55000 P0001 60001





000
SAUS41 KCAR 170900
MTRGNR
METAR KGNR 170856Z AUTO 00000KT 06/04 A2992 RMK AO1 SLP139 T00610044
53001





000
SAUS41 KCAR 170816
MTR40B
METAR K40B 170816Z AUTO VRB02KT 06/06 A2987 RMK AO1 SLP122
     T00590057 57004





000
SAUS41 KCAR 170800
MTRGNR
METAR KGNR 170756Z AUTO 00000KT 06/05 A2991 RMK AO1 SLP138 T00610050





000
SAUS41 KCAR 170716
MTR40B
METAR K40B 170716Z AUTO 00000KT 05/05 A2986 RMK AO1 SLP120
     T00510050 58006





000
SAUS41 KCAR 170700
MTRGNR
METAR KGNR 170656Z AUTO 00000KT 07/06 A2991 RMK AO1 SLP136 T00720056





000
SAUS41 KCAR 170616
MTR40B
METAR K40B 170616Z AUTO 00000KT 05/05 A2988 RMK AO1 SLP123
     T00480046 10101 20043 54001 P0000 60001





000
SAUS41 KCAR 170600
MTRGNR
METAR KGNR 170556Z AUTO 00000KT 08/06 A2991 RMK AO1 SLP136 T00780061
10100 20067 55001





000
SAUS41 KCAR 170516
MTR40B
METAR K40B 170516Z AUTO 00000KT 06/05 A2988 RMK AO1 SLP123
     T00570054 401550056 50003





000
SAUS41 KCAR 170500
MTRGNR
METAR KGNR 170456Z AUTO 00000KT 08/07 A2991 RMK AO1 SLP135 T00780067
401280072





000
SAUS41 KCAR 170416
MTR40B
METAR K40B 170416Z AUTO VRB03KT 08/07 A2988 RMK AO1 SLP123
     T00800068 52003





000
SAUS41 KCAR 170400
MTRGNR
METAR KGNR 170356Z AUTO 00000KT 08/07 A2991 RMK AO1 SLP136 T00780067





000
SAUS41 KCAR 170400
MTRGNR
METAR KGNR 170356Z AUTO 00000KT 08/07 A2991 RMK AO1 SLP136 T00780067





000
SAUS41 KCAR 170316
MTR40B
METAR K40B 170316Z AUTO 00000KT 07/07 A2988 RMK AO1 SLP123
     T00730070 52002 P0000 60000





000
SAUS41 KCAR 170300
MTRGNR
METAR KGNR 170256Z AUTO 00000KT 09/08 A2991 RMK AO1 SLP137 T00890078
53003





000
SAUS41 KCAR 170216
MTR40B
METAR K40B 170216Z AUTO 00000KT 08/07 A2987 RMK AO1 SLP118
     T00840074 51002





000
SAUS41 KCAR 170200
MTRGNR
METAR KGNR 170156Z AUTO 00000KT 08/07 A2991 RMK AO1 SLP137 T00780072





000
SAUS41 KCAR 170116
MTR40B
METAR K40B 170116Z AUTO 00000KT 07/07 A2987 RMK AO1 SLP119
     T00690067 51006





000
SAUS41 KCAR 170100
MTRGNR
METAR KGNR 170056Z AUTO 00000KT 09/08 A2991 RMK AO1 SLP136 T00890083





000
SAUS41 KCAR 170017
MTR40B
METAR K40B 170017Z AUTO 00000KT 08/07 A2988 RMK AO1 SLP119
     T00750072 10155 20075 52008 60013





000
SAUS41 KCAR 170000
MTRGNR
METAR KGNR 162356Z AUTO 00000KT 09/08 A2991 RMK AO1 SLP135 60004
T00940083 10128 20094 53005





000
SAUS41 KCAR 162316
MTR40B
METAR K40B 162316Z AUTO 00000KT 09/08 A2986 RMK AO1 SLP115
     T00900084 55001





000
SAUS41 KCAR 162300
MTRGNR
METAR KGNR 162256Z AUTO 00000KT 11/09 A2990 RMK AO1 SLP131 T01060094





000
SAUS41 KCAR 162200
MTRGNR
METAR KGNR 162156Z AUTO 00000KT 11/10 A2990 RMK AO1 SLP131 T01110100





000
SAUS41 KCAR 162100
MTRGNR
METAR KGNR 162056Z AUTO 00000KT 12/09 A2989 RMK AO1 SLP128 P0002
60004 T01170094 56005





000
SAUS41 KCAR 162000
MTRGNR
METAR KGNR 161956Z AUTO 32007KT 11/10 A2990 RMK AO1 SLP131 P0002
T01110100





000
SAUS41 KCAR 161900
MTRGNR
METAR KGNR 161856Z AUTO VRB03KT 12/09 A2989 RMK AO1 SLP130 T01220089





000
SAUS41 KCAR 161800
MTRGNR
METAR KGNR 161756Z AUTO 18003KT 12/09 A2991 RMK AO1 SLP134 60002
T01220089 10128 20083 56015





000
SAUS41 KCAR 161716
MTR40B
METAR K40B 161716Z AUTO 19010G17KT 14/09 A2989 RMK AO1 SLP127
     T01410092 57016





000
SAUS41 KCAR 161700
MTRGNR
METAR KGNR 161656Z AUTO VRB05KT 12/08 A2992 RMK AO1 SLP139 T01220083





000
SAUS41 KCAR 161616
MTR40B
METAR K40B 161616Z AUTO 20006G12KT 150V250 14/09 A2990 RMK AO1
     SLP132 T01390086 58015





000
SAUS41 KCAR 161557
MTRGNR
METAR KGNR 161556Z AUTO VRB03KT 12/09 A2994 RMK AO1 SLP144 T01170089





000
SAUS41 KCAR 161516
MTR40B
METAR K40B 161516Z AUTO VRB03G12KT 12/09 A2993 RMK AO1 SLP142
     T01240090 58007





000
SAUS41 KCAR 161457
MTRGNR
METAR KGNR 161456Z AUTO 18003KT 11/09 A2995 RMK AO1 SLP151 P0001
60002 T01110089 58008





000
SAUS41 KCAR 161416
MTR40B
METAR K40B 161416Z AUTO 20008G13KT 160V270 11/09 A2994 RMK AO1
     SLP148 T01050090 58003





000
SAUS41 KCAR 161357
MTRGNR
METAR KGNR 161356Z AUTO 00000KT 09/07 A2997 RMK AO1 SLP157 T00940072





000
SAUS41 KCAR 161316
MTR40B
METAR K40B 161316Z AUTO VRB04G11KT 10/09 A2995 RMK AO1 SLP150
     T01020091 54000





000
SAUS41 KCAR 161257
MTRGNR
METAR KGNR 161256Z AUTO 00000KT 08/07 A2998 RMK AO1 SLP159 P0001
T00830067





000
SAUS41 KCAR 161216
MTR40B
METAR K40B 161216Z AUTO VRB04G12KT 10/08 A2995 RMK AO1 SLP151
     T00980083 10098 20065 57002 70000





    US Dept of Commerce
    National Oceanic and Atmospheric Administration
    National Weather Service
    1325 East West Highway
    Silver Spring, MD 20910
    Page Author: NWS Internet Services Team
Disclaimer
Information Quality
Credits
Glossary
Privacy Policy
Freedom of Information Act (FOIA)
About Us
Career Opportunities